sensor_id;sensor_type;location;lat;lon;timestamp;P1;durP1;ratioP1;P2;durP2;ratioP2
27985;SDS011;15453;53.692;10.168;2022-07-03T00:01:02;3.00;;;2.20;;
27985;SDS011;15453;53.692;10.168;2022-07-03T00:03:28;4.40;;;2.05;;
27985;SDS011;15453;53.692;10.168;2022-07-03T00:05:53;4.05;;;2.75;;
27985;SDS011;15453;53.692;10.168;2022-07-03T00:08:25;7.65;;;3.30;;
27985;SDS011;15453;53.692;10.168;2022-07-03T00:10:50;10.27;;;3.65;;
27985;SDS011;15453;53.692;10.168;2022-07-03T00:13:15;7.13;;;3.20;;
27985;SDS011;15453;53.692;10.168;2022-07-03T00:15:41;4.85;;;2.80;;
27985;SDS011;15453;53.692;10.168;2022-07-03T00:18:06;4.90;;;2.70;;
27985;SDS011;15453;53.692;10.168;2022-07-03T00:20:34;5.25;;;2.22;;
27985;SDS011;15453;53.692;10.168;2022-07-03T00:23:05;3.80;;;1.77;;
27985;SDS011;15453;53.692;10.168;2022-07-03T00:25:34;5.30;;;1.27;;
27985;SDS011;15453;53.692;10.168;2022-07-03T00:28:03;2.30;;;1.50;;
27985;SDS011;15453;53.692;10.168;2022-07-03T00:30:29;2.35;;;1.58;;
27985;SDS011;15453;53.692;10.168;2022-07-03T00:32:55;2.85;;;1.30;;
27985;SDS011;15453;53.692;10.168;2022-07-03T00:35:20;5.53;;;1.60;;
27985;SDS011;15453;53.692;10.168;2022-07-03T00:37:46;4.72;;;1.75;;
27985;SDS011;15453;53.692;10.168;2022-07-03T00:40:11;2.47;;;1.50;;
27985;SDS011;15453;53.692;10.168;2022-07-03T00:42:37;3.08;;;1.77;;
27985;SDS011;15453;53.692;10.168;2022-07-03T00:45:04;1.73;;;1.60;;
27985;SDS011;15453;53.692;10.168;2022-07-03T00:47:32;2.80;;;1.30;;
27985;SDS011;15453;53.692;10.168;2022-07-03T00:50:00;2.40;;;1.60;;
27985;SDS011;15453;53.692;10.168;2022-07-03T00:52:31;2.83;;;1.05;;
27985;SDS011;15453;53.692;10.168;2022-07-03T00:54:58;2.17;;;1.50;;
27985;SDS011;15453;53.692;10.168;2022-07-03T00:57:25;3.65;;;1.83;;
27985;SDS011;15453;53.692;10.168;2022-07-03T00:59:52;5.03;;;1.80;;
27985;SDS011;15453;53.692;10.168;2022-07-03T01:14:13;1.65;;;1.10;;
27985;SDS011;15453;53.692;10.168;2022-07-03T01:16:58;2.40;;;1.45;;
27985;SDS011;15453;53.692;10.168;2022-07-03T01:19:37;2.63;;;1.30;;
27985;SDS011;15453;53.692;10.168;2022-07-03T01:22:26;1.88;;;1.10;;
27985;SDS011;15453;53.692;10.168;2022-07-03T01:28:08;2.45;;;1.02;;
27985;SDS011;15453;53.692;10.168;2022-07-03T01:30:38;1.95;;;1.10;;
27985;SDS011;15453;53.692;10.168;2022-07-03T01:35:36;4.20;;;1.33;;
27985;SDS011;15453;53.692;10.168;2022-07-03T01:38:09;2.28;;;1.10;;
27985;SDS011;15453;53.692;10.168;2022-07-03T01:40:36;2.35;;;1.30;;
27985;SDS011;15453;53.692;10.168;2022-07-03T01:43:05;1.90;;;1.20;;
27985;SDS011;15453;53.692;10.168;2022-07-03T01:45:34;1.55;;;1.10;;
27985;SDS011;15453;53.692;10.168;2022-07-03T01:48:06;1.05;;;0.90;;
27985;SDS011;15453;53.692;10.168;2022-07-03T01:50:32;6.15;;;1.55;;
27985;SDS011;15453;53.692;10.168;2022-07-03T01:53:01;1.85;;;1.10;;
27985;SDS011;15453;53.692;10.168;2022-07-03T01:55:31;1.45;;;1.27;;
27985;SDS011;15453;53.692;10.168;2022-07-03T02:00:22;3.78;;;1.00;;
27985;SDS011;15453;53.692;10.168;2022-07-03T02:05:32;6.35;;;1.10;;
27985;SDS011;15453;53.692;10.168;2022-07-03T02:08:11;3.22;;;1.77;;
27985;SDS011;15453;53.692;10.168;2022-07-03T02:11:07;3.70;;;1.20;;
27985;SDS011;15453;53.692;10.168;2022-07-03T02:13:42;1.73;;;1.25;;
27985;SDS011;15453;53.692;10.168;2022-07-03T02:16:16;2.83;;;1.20;;
27985;SDS011;15453;53.692;10.168;2022-07-03T02:18:44;5.10;;;1.23;;
27985;SDS011;15453;53.692;10.168;2022-07-03T02:21:20;3.08;;;1.05;;
27985;SDS011;15453;53.692;10.168;2022-07-03T02:26:42;2.85;;;1.00;;
27985;SDS011;15453;53.692;10.168;2022-07-03T02:29:12;1.77;;;1.10;;
27985;SDS011;15453;53.692;10.168;2022-07-03T02:31:46;3.65;;;1.10;;
27985;SDS011;15453;53.692;10.168;2022-07-03T02:34:22;1.52;;;1.20;;
27985;SDS011;15453;53.692;10.168;2022-07-03T02:36:49;2.03;;;1.20;;
27985;SDS011;15453;53.692;10.168;2022-07-03T02:39:23;1.75;;;0.90;;
27985;SDS011;15453;53.692;10.168;2022-07-03T02:42:02;2.63;;;1.00;;
27985;SDS011;15453;53.692;10.168;2022-07-03T02:44:39;2.85;;;1.20;;
27985;SDS011;15453;53.692;10.168;2022-07-03T02:47:26;2.70;;;1.40;;
27985;SDS011;15453;53.692;10.168;2022-07-03T02:50:02;3.90;;;1.17;;
27985;SDS011;15453;53.692;10.168;2022-07-03T02:55:55;3.00;;;1.30;;
27985;SDS011;15453;53.692;10.168;2022-07-03T02:58:31;1.25;;;0.98;;
27985;SDS011;15453;53.692;10.168;2022-07-03T03:01:13;3.70;;;1.05;;
27985;SDS011;15453;53.692;10.168;2022-07-03T03:03:50;2.47;;;1.15;;
27985;SDS011;15453;53.692;10.168;2022-07-03T03:06:26;3.67;;;1.20;;
27985;SDS011;15453;53.692;10.168;2022-07-03T03:08:55;2.00;;;1.15;;
27985;SDS011;15453;53.692;10.168;2022-07-03T03:13:56;2.15;;;1.20;;
27985;SDS011;15453;53.692;10.168;2022-07-03T03:16:22;2.08;;;1.20;;
27985;SDS011;15453;53.692;10.168;2022-07-03T03:18:48;3.42;;;1.33;;
27985;SDS011;15453;53.692;10.168;2022-07-03T03:21:15;2.22;;;1.20;;
27985;SDS011;15453;53.692;10.168;2022-07-03T03:26:13;1.92;;;1.40;;
27985;SDS011;15453;53.692;10.168;2022-07-03T03:28:41;1.30;;;1.10;;
27985;SDS011;15453;53.692;10.168;2022-07-03T03:31:07;2.30;;;1.20;;
27985;SDS011;15453;53.692;10.168;2022-07-03T03:33:42;2.05;;;1.10;;
27985;SDS011;15453;53.692;10.168;2022-07-03T03:36:09;1.42;;;0.90;;
27985;SDS011;15453;53.692;10.168;2022-07-03T03:38:36;2.25;;;1.05;;
27985;SDS011;15453;53.692;10.168;2022-07-03T03:41:02;2.78;;;1.33;;
27985;SDS011;15453;53.692;10.168;2022-07-03T03:43:28;1.20;;;1.10;;
27985;SDS011;15453;53.692;10.168;2022-07-03T03:45:54;2.25;;;1.02;;
27985;SDS011;15453;53.692;10.168;2022-07-03T03:48:19;1.98;;;1.25;;
27985;SDS011;15453;53.692;10.168;2022-07-03T03:50:44;1.65;;;1.20;;
27985;SDS011;15453;53.692;10.168;2022-07-03T03:53:10;1.17;;;1.00;;
27985;SDS011;15453;53.692;10.168;2022-07-03T03:55:37;1.95;;;1.20;;
27985;SDS011;15453;53.692;10.168;2022-07-03T03:58:02;3.60;;;1.30;;
27985;SDS011;15453;53.692;10.168;2022-07-03T04:00:29;1.80;;;0.85;;
27985;SDS011;15453;53.692;10.168;2022-07-03T04:02:55;1.58;;;1.15;;
27985;SDS011;15453;53.692;10.168;2022-07-03T04:05:20;1.77;;;1.20;;
27985;SDS011;15453;53.692;10.168;2022-07-03T04:07:45;2.15;;;1.40;;
27985;SDS011;15453;53.692;10.168;2022-07-03T04:10:11;3.60;;;1.40;;
27985;SDS011;15453;53.692;10.168;2022-07-03T04:12:36;2.13;;;1.30;;
27985;SDS011;15453;53.692;10.168;2022-07-03T04:15:02;1.48;;;1.10;;
27985;SDS011;15453;53.692;10.168;2022-07-03T04:17:27;1.95;;;1.20;;
27985;SDS011;15453;53.692;10.168;2022-07-03T04:19:53;1.27;;;1.05;;
27985;SDS011;15453;53.692;10.168;2022-07-03T04:22:18;2.70;;;1.30;;
27985;SDS011;15453;53.692;10.168;2022-07-03T04:24:44;1.70;;;1.27;;
27985;SDS011;15453;53.692;10.168;2022-07-03T04:27:09;1.20;;;1.10;;
27985;SDS011;15453;53.692;10.168;2022-07-03T04:29:34;2.78;;;1.27;;
27985;SDS011;15453;53.692;10.168;2022-07-03T04:31:59;1.60;;;1.13;;
27985;SDS011;15453;53.692;10.168;2022-07-03T04:34:25;4.35;;;1.23;;
27985;SDS011;15453;53.692;10.168;2022-07-03T04:36:50;3.83;;;1.25;;
27985;SDS011;15453;53.692;10.168;2022-07-03T04:39:15;3.83;;;1.35;;
27985;SDS011;15453;53.692;10.168;2022-07-03T04:41:41;3.53;;;1.20;;
27985;SDS011;15453;53.692;10.168;2022-07-03T04:44:06;2.03;;;1.17;;
27985;SDS011;15453;53.692;10.168;2022-07-03T04:46:31;2.15;;;1.20;;
27985;SDS011;15453;53.692;10.168;2022-07-03T04:48:56;1.60;;;0.98;;
27985;SDS011;15453;53.692;10.168;2022-07-03T04:51:22;2.60;;;1.13;;
27985;SDS011;15453;53.692;10.168;2022-07-03T04:53:47;1.50;;;1.10;;
27985;SDS011;15453;53.692;10.168;2022-07-03T04:56:12;2.75;;;1.20;;
27985;SDS011;15453;53.692;10.168;2022-07-03T04:58:37;4.47;;;1.45;;
27985;SDS011;15453;53.692;10.168;2022-07-03T05:01:03;1.67;;;1.13;;
27985;SDS011;15453;53.692;10.168;2022-07-03T05:03:28;3.22;;;1.20;;
27985;SDS011;15453;53.692;10.168;2022-07-03T05:05:53;1.90;;;1.30;;
27985;SDS011;15453;53.692;10.168;2022-07-03T05:08:18;1.85;;;1.17;;
27985;SDS011;15453;53.692;10.168;2022-07-03T05:10:45;3.00;;;1.10;;
27985;SDS011;15453;53.692;10.168;2022-07-03T05:13:10;3.63;;;1.30;;
27985;SDS011;15453;53.692;10.168;2022-07-03T05:15:36;2.65;;;1.30;;
27985;SDS011;15453;53.692;10.168;2022-07-03T05:18:01;1.58;;;1.35;;
27985;SDS011;15453;53.692;10.168;2022-07-03T05:20:26;1.65;;;1.30;;
27985;SDS011;15453;53.692;10.168;2022-07-03T05:22:55;1.70;;;1.20;;
27985;SDS011;15453;53.692;10.168;2022-07-03T05:25:22;2.35;;;1.27;;
27985;SDS011;15453;53.692;10.168;2022-07-03T05:27:48;2.58;;;1.40;;
27985;SDS011;15453;53.692;10.168;2022-07-03T05:30:15;4.28;;;1.48;;
27985;SDS011;15453;53.692;10.168;2022-07-03T05:32:41;3.00;;;1.30;;
27985;SDS011;15453;53.692;10.168;2022-07-03T05:35:06;3.58;;;1.58;;
27985;SDS011;15453;53.692;10.168;2022-07-03T05:37:32;3.33;;;1.50;;
27985;SDS011;15453;53.692;10.168;2022-07-03T05:39:58;1.58;;;1.20;;
27985;SDS011;15453;53.692;10.168;2022-07-03T05:42:23;4.32;;;1.45;;
27985;SDS011;15453;53.692;10.168;2022-07-03T05:44:48;1.95;;;1.20;;
27985;SDS011;15453;53.692;10.168;2022-07-03T05:47:14;2.15;;;1.30;;
27985;SDS011;15453;53.692;10.168;2022-07-03T05:49:39;1.63;;;1.13;;
27985;SDS011;15453;53.692;10.168;2022-07-03T05:52:04;1.20;;;1.00;;
27985;SDS011;15453;53.692;10.168;2022-07-03T05:54:30;4.50;;;1.63;;
27985;SDS011;15453;53.692;10.168;2022-07-03T05:56:55;3.15;;;1.48;;
27985;SDS011;15453;53.692;10.168;2022-07-03T05:59:20;1.95;;;1.30;;
27985;SDS011;15453;53.692;10.168;2022-07-03T06:01:46;1.58;;;1.27;;
27985;SDS011;15453;53.692;10.168;2022-07-03T06:04:11;1.83;;;1.20;;
27985;SDS011;15453;53.692;10.168;2022-07-03T06:06:36;2.97;;;1.40;;
27985;SDS011;15453;53.692;10.168;2022-07-03T06:09:02;1.58;;;1.15;;
27985;SDS011;15453;53.692;10.168;2022-07-03T06:11:27;6.05;;;2.10;;
27985;SDS011;15453;53.692;10.168;2022-07-03T06:13:52;1.88;;;1.10;;
27985;SDS011;15453;53.692;10.168;2022-07-03T06:16:17;3.28;;;1.38;;
27985;SDS011;15453;53.692;10.168;2022-07-03T06:18:43;2.40;;;1.27;;
27985;SDS011;15453;53.692;10.168;2022-07-03T06:21:09;1.40;;;1.30;;
27985;SDS011;15453;53.692;10.168;2022-07-03T06:23:34;1.48;;;1.20;;
27985;SDS011;15453;53.692;10.168;2022-07-03T06:26:00;2.45;;;1.60;;
27985;SDS011;15453;53.692;10.168;2022-07-03T06:28:25;2.13;;;1.08;;
27985;SDS011;15453;53.692;10.168;2022-07-03T06:30:51;2.70;;;1.05;;
27985;SDS011;15453;53.692;10.168;2022-07-03T06:33:16;2.35;;;1.30;;
27985;SDS011;15453;53.692;10.168;2022-07-03T06:35:42;1.67;;;1.15;;
27985;SDS011;15453;53.692;10.168;2022-07-03T06:38:08;4.38;;;1.25;;
27985;SDS011;15453;53.692;10.168;2022-07-03T06:40:33;1.35;;;1.08;;
27985;SDS011;15453;53.692;10.168;2022-07-03T06:42:58;1.65;;;1.05;;
27985;SDS011;15453;53.692;10.168;2022-07-03T06:45:23;2.20;;;1.30;;
27985;SDS011;15453;53.692;10.168;2022-07-03T06:47:49;1.25;;;1.05;;
27985;SDS011;15453;53.692;10.168;2022-07-03T06:50:14;1.20;;;1.10;;
27985;SDS011;15453;53.692;10.168;2022-07-03T06:52:39;2.72;;;1.60;;
27985;SDS011;15453;53.692;10.168;2022-07-03T06:55:05;2.30;;;1.30;;
27985;SDS011;15453;53.692;10.168;2022-07-03T06:57:30;1.70;;;1.25;;
27985;SDS011;15453;53.692;10.168;2022-07-03T06:59:56;1.85;;;1.20;;
27985;SDS011;15453;53.692;10.168;2022-07-03T07:02:21;3.75;;;1.27;;
27985;SDS011;15453;53.692;10.168;2022-07-03T07:04:46;1.75;;;1.30;;
27985;SDS011;15453;53.692;10.168;2022-07-03T07:07:12;1.92;;;1.23;;
27985;SDS011;15453;53.692;10.168;2022-07-03T07:09:37;2.67;;;1.20;;
27985;SDS011;15453;53.692;10.168;2022-07-03T07:12:02;3.53;;;1.08;;
27985;SDS011;15453;53.692;10.168;2022-07-03T07:14:28;4.10;;;1.40;;
27985;SDS011;15453;53.692;10.168;2022-07-03T07:16:53;3.13;;;1.43;;
27985;SDS011;15453;53.692;10.168;2022-07-03T07:19:19;2.95;;;1.27;;
27985;SDS011;15453;53.692;10.168;2022-07-03T07:21:44;3.63;;;1.15;;
27985;SDS011;15453;53.692;10.168;2022-07-03T07:24:10;1.55;;;1.15;;
27985;SDS011;15453;53.692;10.168;2022-07-03T07:26:36;2.70;;;1.50;;
27985;SDS011;15453;53.692;10.168;2022-07-03T07:29:01;1.92;;;1.20;;
27985;SDS011;15453;53.692;10.168;2022-07-03T07:31:26;2.23;;;1.20;;
27985;SDS011;15453;53.692;10.168;2022-07-03T07:33:52;1.65;;;1.10;;
27985;SDS011;15453;53.692;10.168;2022-07-03T07:36:17;1.90;;;1.30;;
27985;SDS011;15453;53.692;10.168;2022-07-03T07:38:42;2.25;;;1.25;;
27985;SDS011;15453;53.692;10.168;2022-07-03T07:41:07;2.73;;;1.60;;
27985;SDS011;15453;53.692;10.168;2022-07-03T07:43:33;6.15;;;1.38;;
27985;SDS011;15453;53.692;10.168;2022-07-03T07:45:58;2.60;;;1.47;;
27985;SDS011;15453;53.692;10.168;2022-07-03T07:48:23;2.20;;;1.35;;
27985;SDS011;15453;53.692;10.168;2022-07-03T07:50:48;1.50;;;1.30;;
27985;SDS011;15453;53.692;10.168;2022-07-03T07:53:15;3.80;;;1.40;;
27985;SDS011;15453;53.692;10.168;2022-07-03T07:55:40;1.88;;;1.25;;
27985;SDS011;15453;53.692;10.168;2022-07-03T07:58:06;1.60;;;1.30;;
27985;SDS011;15453;53.692;10.168;2022-07-03T08:00:32;3.53;;;1.35;;
27985;SDS011;15453;53.692;10.168;2022-07-03T08:02:57;2.63;;;1.20;;
27985;SDS011;15453;53.692;10.168;2022-07-03T08:05:41;2.40;;;1.15;;
27985;SDS011;15453;53.692;10.168;2022-07-03T08:08:07;1.50;;;1.17;;
27985;SDS011;15453;53.692;10.168;2022-07-03T08:10:39;1.70;;;1.13;;
27985;SDS011;15453;53.692;10.168;2022-07-03T08:13:09;2.72;;;1.20;;
27985;SDS011;15453;53.692;10.168;2022-07-03T08:15:35;2.33;;;1.05;;
27985;SDS011;15453;53.692;10.168;2022-07-03T08:18:01;1.23;;;1.05;;
27985;SDS011;15453;53.692;10.168;2022-07-03T08:20:26;2.13;;;1.23;;
27985;SDS011;15453;53.692;10.168;2022-07-03T08:22:52;2.30;;;1.30;;
27985;SDS011;15453;53.692;10.168;2022-07-03T08:25:17;2.35;;;1.20;;
27985;SDS011;15453;53.692;10.168;2022-07-03T08:27:43;2.50;;;1.33;;
27985;SDS011;15453;53.692;10.168;2022-07-03T08:30:08;1.52;;;0.90;;
27985;SDS011;15453;53.692;10.168;2022-07-03T08:32:34;2.38;;;1.00;;
27985;SDS011;15453;53.692;10.168;2022-07-03T08:34:59;2.08;;;1.13;;
27985;SDS011;15453;53.692;10.168;2022-07-03T08:37:25;2.58;;;1.25;;
27985;SDS011;15453;53.692;10.168;2022-07-03T08:39:51;2.08;;;1.00;;
27985;SDS011;15453;53.692;10.168;2022-07-03T08:42:16;3.45;;;1.25;;
27985;SDS011;15453;53.692;10.168;2022-07-03T08:44:43;3.33;;;1.00;;
27985;SDS011;15453;53.692;10.168;2022-07-03T08:47:09;1.88;;;0.90;;
27985;SDS011;15453;53.692;10.168;2022-07-03T08:49:36;1.50;;;1.20;;
27985;SDS011;15453;53.692;10.168;2022-07-03T08:52:02;3.05;;;1.48;;
27985;SDS011;15453;53.692;10.168;2022-07-03T08:54:28;2.88;;;1.00;;
27985;SDS011;15453;53.692;10.168;2022-07-03T08:56:53;6.68;;;1.20;;
27985;SDS011;15453;53.692;10.168;2022-07-03T08:59:18;1.63;;;1.10;;
27985;SDS011;15453;53.692;10.168;2022-07-03T09:01:46;1.45;;;1.00;;
27985;SDS011;15453;53.692;10.168;2022-07-03T09:04:12;2.13;;;1.08;;
27985;SDS011;15453;53.692;10.168;2022-07-03T09:06:40;1.65;;;1.05;;
27985;SDS011;15453;53.692;10.168;2022-07-03T09:09:07;4.70;;;1.33;;
27985;SDS011;15453;53.692;10.168;2022-07-03T09:11:34;1.88;;;1.15;;
27985;SDS011;15453;53.692;10.168;2022-07-03T09:14:01;2.72;;;0.90;;
27985;SDS011;15453;53.692;10.168;2022-07-03T09:16:31;2.78;;;1.25;;
27985;SDS011;15453;53.692;10.168;2022-07-03T09:18:56;3.63;;;1.00;;
27985;SDS011;15453;53.692;10.168;2022-07-03T09:21:21;1.77;;;1.10;;
27985;SDS011;15453;53.692;10.168;2022-07-03T09:23:47;2.67;;;1.27;;
27985;SDS011;15453;53.692;10.168;2022-07-03T09:26:16;2.60;;;1.30;;
27985;SDS011;15453;53.692;10.168;2022-07-03T09:28:45;2.75;;;1.15;;
27985;SDS011;15453;53.692;10.168;2022-07-03T09:31:27;2.22;;;1.10;;
27985;SDS011;15453;53.692;10.168;2022-07-03T09:34:04;2.80;;;1.35;;
27985;SDS011;15453;53.692;10.168;2022-07-03T09:39:30;2.67;;;1.02;;
27985;SDS011;15453;53.692;10.168;2022-07-03T09:42:02;1.95;;;1.00;;
27985;SDS011;15453;53.692;10.168;2022-07-03T09:44:35;2.80;;;1.70;;
27985;SDS011;15453;53.692;10.168;2022-07-03T09:47:08;2.53;;;1.98;;
27985;SDS011;15453;53.692;10.168;2022-07-03T09:49:47;1.80;;;1.00;;
27985;SDS011;15453;53.692;10.168;2022-07-03T09:57:33;2.45;;;1.10;;
27985;SDS011;15453;53.692;10.168;2022-07-03T10:02:58;4.15;;;1.25;;
27985;SDS011;15453;53.692;10.168;2022-07-03T10:05:35;2.08;;;1.13;;
27985;SDS011;15453;53.692;10.168;2022-07-03T10:08:03;1.55;;;1.15;;
27985;SDS011;15453;53.692;10.168;2022-07-03T10:10:41;5.00;;;1.10;;
27985;SDS011;15453;53.692;10.168;2022-07-03T10:13:08;1.63;;;0.80;;
27985;SDS011;15453;53.692;10.168;2022-07-03T10:15:35;2.28;;;1.13;;
27985;SDS011;15453;53.692;10.168;2022-07-03T10:18:04;1.75;;;0.90;;
27985;SDS011;15453;53.692;10.168;2022-07-03T10:20:34;1.90;;;1.20;;
27985;SDS011;15453;53.692;10.168;2022-07-03T10:23:04;3.33;;;1.10;;
27985;SDS011;15453;53.692;10.168;2022-07-03T10:25:30;3.13;;;1.20;;
27985;SDS011;15453;53.692;10.168;2022-07-03T10:27:56;1.65;;;0.93;;
27985;SDS011;15453;53.692;10.168;2022-07-03T10:30:22;1.70;;;1.00;;
27985;SDS011;15453;53.692;10.168;2022-07-03T10:32:49;2.05;;;0.93;;
27985;SDS011;15453;53.692;10.168;2022-07-03T10:35:32;1.75;;;1.00;;
27985;SDS011;15453;53.692;10.168;2022-07-03T10:38:05;3.38;;;1.08;;
27985;SDS011;15453;53.692;10.168;2022-07-03T10:41:34;3.17;;;1.55;;
27985;SDS011;15453;53.692;10.168;2022-07-03T10:44:04;2.88;;;0.90;;
27985;SDS011;15453;53.692;10.168;2022-07-03T10:46:49;1.58;;;1.00;;
27985;SDS011;15453;53.692;10.168;2022-07-03T10:49:15;2.97;;;1.27;;
27985;SDS011;15453;53.692;10.168;2022-07-03T10:59:22;2.65;;;1.30;;
27985;SDS011;15453;53.692;10.168;2022-07-03T11:01:48;1.95;;;1.15;;
27985;SDS011;15453;53.692;10.168;2022-07-03T11:04:13;4.82;;;1.40;;
27985;SDS011;15453;53.692;10.168;2022-07-03T11:09:12;1.98;;;1.00;;
27985;SDS011;15453;53.692;10.168;2022-07-03T11:11:42;2.10;;;1.40;;
27985;SDS011;15453;53.692;10.168;2022-07-03T11:14:24;3.90;;;1.30;;
27985;SDS011;15453;53.692;10.168;2022-07-03T11:19:41;3.33;;;0.82;;
27985;SDS011;15453;53.692;10.168;2022-07-03T11:22:07;4.10;;;1.20;;
27985;SDS011;15453;53.692;10.168;2022-07-03T11:24:44;1.92;;;1.10;;
27985;SDS011;15453;53.692;10.168;2022-07-03T11:27:14;2.35;;;0.95;;
27985;SDS011;15453;53.692;10.168;2022-07-03T11:29:48;4.15;;;1.10;;
27985;SDS011;15453;53.692;10.168;2022-07-03T11:38:23;3.67;;;1.40;;
27985;SDS011;15453;53.692;10.168;2022-07-03T11:40:54;1.85;;;1.00;;
27985;SDS011;15453;53.692;10.168;2022-07-03T11:43:20;2.65;;;1.13;;
27985;SDS011;15453;53.692;10.168;2022-07-03T11:45:46;2.03;;;1.20;;
27985;SDS011;15453;53.692;10.168;2022-07-03T11:48:13;3.97;;;1.20;;
27985;SDS011;15453;53.692;10.168;2022-07-03T11:50:41;4.53;;;1.00;;
27985;SDS011;15453;53.692;10.168;2022-07-03T11:58:41;3.28;;;0.90;;
27985;SDS011;15453;53.692;10.168;2022-07-03T12:03:46;4.00;;;1.10;;
27985;SDS011;15453;53.692;10.168;2022-07-03T12:06:11;2.05;;;1.00;;
27985;SDS011;15453;53.692;10.168;2022-07-03T12:08:37;1.85;;;1.27;;
27985;SDS011;15453;53.692;10.168;2022-07-03T12:11:08;2.45;;;1.10;;
27985;SDS011;15453;53.692;10.168;2022-07-03T12:13:34;2.95;;;1.10;;
27985;SDS011;15453;53.692;10.168;2022-07-03T12:16:01;2.45;;;1.00;;
27985;SDS011;15453;53.692;10.168;2022-07-03T12:18:41;2.72;;;1.40;;
27985;SDS011;15453;53.692;10.168;2022-07-03T12:21:11;1.73;;;0.90;;
27985;SDS011;15453;53.692;10.168;2022-07-03T12:23:51;1.45;;;1.00;;
27985;SDS011;15453;53.692;10.168;2022-07-03T12:28:56;2.20;;;0.87;;
27985;SDS011;15453;53.692;10.168;2022-07-03T12:31:23;4.28;;;0.88;;
27985;SDS011;15453;53.692;10.168;2022-07-03T12:33:49;1.45;;;0.80;;
27985;SDS011;15453;53.692;10.168;2022-07-03T12:36:14;2.50;;;1.30;;
27985;SDS011;15453;53.692;10.168;2022-07-03T12:38:39;2.87;;;1.33;;
27985;SDS011;15453;53.692;10.168;2022-07-03T12:41:08;3.67;;;1.20;;
27985;SDS011;15453;53.692;10.168;2022-07-03T12:43:40;5.47;;;1.23;;
27985;SDS011;15453;53.692;10.168;2022-07-03T12:46:53;3.35;;;1.13;;
27985;SDS011;15453;53.692;10.168;2022-07-03T12:48:56;2.17;;;1.00;;
27985;SDS011;15453;53.692;10.168;2022-07-03T12:56:46;1.95;;;0.88;;
27985;SDS011;15453;53.692;10.168;2022-07-03T13:02:40;1.67;;;1.10;;
27985;SDS011;15453;53.692;10.168;2022-07-03T13:05:21;1.83;;;0.98;;
27985;SDS011;15453;53.692;10.168;2022-07-03T13:07:49;4.40;;;1.00;;
27985;SDS011;15453;53.692;10.168;2022-07-03T13:10:16;2.60;;;1.17;;
27985;SDS011;15453;53.692;10.168;2022-07-03T13:15:14;3.63;;;1.20;;
27985;SDS011;15453;53.692;10.168;2022-07-03T13:20:14;2.00;;;0.98;;
27985;SDS011;15453;53.692;10.168;2022-07-03T13:22:40;2.47;;;0.85;;
27985;SDS011;15453;53.692;10.168;2022-07-03T13:25:05;3.78;;;0.85;;
27985;SDS011;15453;53.692;10.168;2022-07-03T13:27:31;4.28;;;0.88;;
27985;SDS011;15453;53.692;10.168;2022-07-03T13:29:56;2.37;;;0.80;;
27985;SDS011;15453;53.692;10.168;2022-07-03T13:32:21;1.47;;;0.80;;
27985;SDS011;15453;53.692;10.168;2022-07-03T13:34:46;5.80;;;1.00;;
27985;SDS011;15453;53.692;10.168;2022-07-03T13:37:12;1.77;;;0.93;;
27985;SDS011;15453;53.692;10.168;2022-07-03T13:39:37;2.40;;;1.20;;
27985;SDS011;15453;53.692;10.168;2022-07-03T13:42:03;2.60;;;1.27;;
27985;SDS011;15453;53.692;10.168;2022-07-03T13:44:30;1.30;;;0.80;;
27985;SDS011;15453;53.692;10.168;2022-07-03T13:46:55;4.45;;;3.65;;
27985;SDS011;15453;53.692;10.168;2022-07-03T13:49:21;2.40;;;1.30;;
27985;SDS011;15453;53.692;10.168;2022-07-03T13:51:46;3.00;;;1.40;;
27985;SDS011;15453;53.692;10.168;2022-07-03T13:54:11;2.05;;;0.70;;
27985;SDS011;15453;53.692;10.168;2022-07-03T13:56:36;3.08;;;0.80;;
27985;SDS011;15453;53.692;10.168;2022-07-03T13:59:02;1.83;;;0.90;;
27985;SDS011;15453;53.692;10.168;2022-07-03T14:01:27;2.20;;;1.00;;
27985;SDS011;15453;53.692;10.168;2022-07-03T14:03:52;4.47;;;0.77;;
27985;SDS011;15453;53.692;10.168;2022-07-03T14:06:18;1.43;;;0.80;;
27985;SDS011;15453;53.692;10.168;2022-07-03T14:08:43;1.30;;;0.90;;
27985;SDS011;15453;53.692;10.168;2022-07-03T14:11:08;2.85;;;0.85;;
27985;SDS011;15453;53.692;10.168;2022-07-03T14:13:33;1.37;;;0.70;;
27985;SDS011;15453;53.692;10.168;2022-07-03T14:15:59;3.07;;;0.73;;
27985;SDS011;15453;53.692;10.168;2022-07-03T14:18:25;4.32;;;0.80;;
27985;SDS011;15453;53.692;10.168;2022-07-03T14:20:50;1.90;;;0.67;;
27985;SDS011;15453;53.692;10.168;2022-07-03T14:23:15;2.17;;;0.75;;
27985;SDS011;15453;53.692;10.168;2022-07-03T14:25:40;1.53;;;0.70;;
27985;SDS011;15453;53.692;10.168;2022-07-03T14:28:06;5.30;;;1.00;;
27985;SDS011;15453;53.692;10.168;2022-07-03T14:30:49;2.00;;;0.88;;
27985;SDS011;15453;53.692;10.168;2022-07-03T14:33:33;1.85;;;0.75;;
27985;SDS011;15453;53.692;10.168;2022-07-03T14:35:59;2.27;;;0.97;;
27985;SDS011;15453;53.692;10.168;2022-07-03T14:38:24;1.03;;;0.60;;
27985;SDS011;15453;53.692;10.168;2022-07-03T14:40:49;1.20;;;0.70;;
27985;SDS011;15453;53.692;10.168;2022-07-03T14:43:16;1.45;;;0.80;;
27985;SDS011;15453;53.692;10.168;2022-07-03T14:45:41;1.67;;;0.70;;
27985;SDS011;15453;53.692;10.168;2022-07-03T14:48:07;5.95;;;0.95;;
27985;SDS011;15453;53.692;10.168;2022-07-03T14:50:33;3.00;;;0.80;;
27985;SDS011;15453;53.692;10.168;2022-07-03T14:52:58;1.27;;;0.93;;
27985;SDS011;15453;53.692;10.168;2022-07-03T14:55:23;1.90;;;0.77;;
27985;SDS011;15453;53.692;10.168;2022-07-03T14:58:16;1.90;;;0.70;;
27985;SDS011;15453;53.692;10.168;2022-07-03T15:00:47;1.77;;;0.60;;
27985;SDS011;15453;53.692;10.168;2022-07-03T15:03:23;1.08;;;0.90;;
27985;SDS011;15453;53.692;10.168;2022-07-03T15:05:54;1.75;;;0.90;;
27985;SDS011;15453;53.692;10.168;2022-07-03T15:08:29;2.30;;;0.80;;
27985;SDS011;15453;53.692;10.168;2022-07-03T15:11:01;1.58;;;0.80;;
27985;SDS011;15453;53.692;10.168;2022-07-03T15:13:30;2.03;;;0.80;;
27985;SDS011;15453;53.692;10.168;2022-07-03T15:15:59;1.08;;;0.75;;
27985;SDS011;15453;53.692;10.168;2022-07-03T15:18:24;1.90;;;0.75;;
27985;SDS011;15453;53.692;10.168;2022-07-03T15:20:50;4.05;;;0.80;;
27985;SDS011;15453;53.692;10.168;2022-07-03T15:23:19;0.90;;;0.60;;
27985;SDS011;15453;53.692;10.168;2022-07-03T15:25:46;0.90;;;0.60;;
27985;SDS011;15453;53.692;10.168;2022-07-03T15:28:13;1.73;;;0.88;;
27985;SDS011;15453;53.692;10.168;2022-07-03T15:30:45;1.30;;;0.70;;
27985;SDS011;15453;53.692;10.168;2022-07-03T15:33:12;2.58;;;0.60;;
27985;SDS011;15453;53.692;10.168;2022-07-03T15:35:38;2.25;;;0.95;;
27985;SDS011;15453;53.692;10.168;2022-07-03T15:38:12;2.13;;;0.80;;
27985;SDS011;15453;53.692;10.168;2022-07-03T15:40:40;1.65;;;0.75;;
27985;SDS011;15453;53.692;10.168;2022-07-03T15:54:23;1.05;;;0.70;;
27985;SDS011;15453;53.692;10.168;2022-07-03T15:56:56;1.42;;;0.70;;
27985;SDS011;15453;53.692;10.168;2022-07-03T15:59:25;4.63;;;0.80;;
27985;SDS011;15453;53.692;10.168;2022-07-03T16:01:52;2.00;;;0.80;;
27985;SDS011;15453;53.692;10.168;2022-07-03T16:07:27;2.22;;;0.80;;
27985;SDS011;15453;53.692;10.168;2022-07-03T16:09:54;1.77;;;0.77;;
27985;SDS011;15453;53.692;10.168;2022-07-03T16:12:22;2.58;;;0.70;;
27985;SDS011;15453;53.692;10.168;2022-07-03T16:14:49;5.57;;;0.85;;
27985;SDS011;15453;53.692;10.168;2022-07-03T16:17:19;4.35;;;0.90;;
27985;SDS011;15453;53.692;10.168;2022-07-03T16:19:46;3.47;;;0.80;;
27985;SDS011;15453;53.692;10.168;2022-07-03T16:22:12;4.07;;;0.77;;